createdAt,value
2018-11-06T00:00:21.358Z,100326.73
2018-11-06T00:02:56.122Z,100324.55
2018-11-06T00:05:25.569Z,100322.37
2018-11-06T00:07:55.029Z,100327.55
2018-11-06T00:10:24.481Z,100322.34
2018-11-06T01:12:17.298Z,100321.23
2018-11-06T01:14:46.778Z,100313.02
2018-11-06T01:17:16.225Z,100312.19
2018-11-06T01:19:45.657Z,100320.45
2018-11-06T01:22:15.302Z,100320.04
2018-11-06T01:24:44.758Z,100317.48
2018-11-06T01:27:14.183Z,100320.15
2018-11-06T01:29:43.626Z,100325.81
2018-11-06T01:32:13.226Z,100317.11
2018-11-06T01:34:42.661Z,100313.64
2018-11-06T01:37:12.136Z,100320.18
2018-11-06T01:39:41.597Z,100316.67
2018-11-06T01:42:11.096Z,100315.81
2018-11-06T01:44:41.546Z,100321.05
2018-11-06T01:47:10.998Z,100318.01
2018-11-06T01:49:40.467Z,100324.53
2018-11-06T01:52:09.913Z,100318.02
2018-11-06T01:54:39.366Z,100310.63
2018-11-06T01:57:08.827Z,100315.84
2018-11-06T01:59:38.265Z,100307.17
2018-11-06T02:02:07.760Z,100308.05
2018-11-06T02:04:37.206Z,100304.15
2018-11-06T02:07:07.897Z,100301.11
2018-11-06T02:09:37.389Z,100296.75
2018-11-06T02:12:06.902Z,100294.59
2018-11-06T02:14:36.369Z,100295.91
2018-11-06T02:17:06.226Z,100302.45
2018-11-06T02:19:35.662Z,100311.16
2018-11-06T02:22:05.421Z,100309.84
2018-11-06T02:24:34.869Z,100317.66
2018-11-06T02:27:04.315Z,100315.05
2018-11-06T02:29:33.750Z,100315.48
2018-11-06T02:32:03.206Z,100313.77
2018-11-06T02:34:32.638Z,100315.48
2018-11-06T02:37:02.095Z,100312.45
2018-11-06T02:39:31.551Z,100306.80
2018-11-06T02:42:00.999Z,100309.40
2018-11-06T02:44:30.456Z,100310.28
2018-11-06T02:46:59.922Z,100318.52
2018-11-06T02:49:29.381Z,100308.52
2018-11-06T02:51:58.842Z,100310.23
2018-11-06T02:54:28.296Z,100315.86
2018-11-06T02:56:57.750Z,100318.01
2018-11-06T02:59:27.229Z,100315.81
2018-11-06T03:01:56.710Z,100317.11
2018-11-06T03:04:26.214Z,100316.68
2018-11-06T03:06:55.670Z,100328.78
2018-11-06T03:09:25.177Z,100322.22
2018-11-06T03:11:54.632Z,100330.45
2018-11-06T03:14:24.057Z,100332.17
2018-11-06T03:16:53.481Z,100330.00
2018-11-06T03:19:22.886Z,100330.40
2018-11-06T03:21:52.264Z,100329.48
2018-11-06T03:24:21.668Z,100327.30
2018-11-06T03:26:51.111Z,100329.03
2018-11-06T03:29:20.469Z,100332.48
2018-11-06T03:31:49.874Z,100332.42
2018-11-06T03:34:19.333Z,100332.35
2018-11-06T03:36:48.731Z,100333.19
2018-11-06T03:39:18.116Z,100338.80
2018-11-06T03:41:47.500Z,100337.45
2018-11-06T03:44:16.919Z,100343.94
2018-11-06T03:46:46.320Z,100341.73
2018-11-06T03:49:15.764Z,100346.48
2018-11-06T03:51:45.272Z,100343.39
2018-11-06T03:54:14.821Z,100335.12
2018-11-06T03:56:44.234Z,100329.89
2018-11-06T03:59:13.702Z,100338.13
2018-11-06T04:01:43.139Z,100346.78
2018-11-06T04:04:12.616Z,100345.03
2018-11-06T04:06:42.035Z,100346.33
2018-11-06T04:09:12.687Z,100350.69
2018-11-06T04:11:42.480Z,100354.15
2018-11-06T04:14:11.976Z,100354.97
2018-11-06T04:16:41.514Z,100354.49
2018-11-06T04:19:11.006Z,100353.17
2018-11-06T04:21:41.185Z,100354.06
2018-11-06T04:24:12.078Z,100351.00
2018-11-06T04:26:41.476Z,100348.38
2018-11-06T04:29:11.315Z,100354.42
2018-11-06T04:31:41.007Z,100351.78
2018-11-06T04:34:10.503Z,100354.31
2018-11-06T04:36:39.866Z,100349.09
2018-11-06T04:39:11.135Z,100356.46
2018-11-06T04:41:40.528Z,100355.14
2018-11-06T04:44:09.883Z,100351.63
2018-11-06T04:46:39.325Z,100354.20
2018-11-06T04:49:08.802Z,100349.80
2018-11-06T04:51:38.197Z,100352.39
2018-11-06T04:54:07.559Z,100358.85
2018-11-06T04:56:36.911Z,100357.52
2018-11-06T04:59:06.312Z,100351.42
2018-11-06T05:01:35.703Z,100352.67
2018-11-06T05:04:05.143Z,100363.04
2018-11-06T05:06:34.528Z,100360.84
2018-11-06T05:09:05.219Z,100359.52
2018-11-06T05:11:34.607Z,100368.16
2018-11-06T05:14:04.006Z,100365.48
2018-11-06T05:16:33.360Z,100367.19
2018-11-06T05:19:02.715Z,100366.31
2018-11-06T05:21:32.121Z,100374.97
2018-11-06T05:24:01.494Z,100366.24
2018-11-06T05:26:30.920Z,100377.90
2018-11-06T05:29:00.283Z,100383.93
2018-11-06T05:31:29.655Z,100389.98
2018-11-06T05:33:59.034Z,100387.36
2018-11-06T05:36:28.412Z,100391.23
2018-11-06T05:38:57.870Z,100386.89
2018-11-06T05:41:27.221Z,100392.54
2018-11-06T05:43:56.621Z,100394.69
2018-11-06T05:46:25.928Z,100386.46
2018-11-06T05:48:55.412Z,100382.95
2018-11-06T05:51:24.773Z,100380.38
2018-11-06T05:53:54.218Z,100386.91
2018-11-06T05:56:23.628Z,100389.94
2018-11-06T05:58:53.125Z,100394.72
2018-11-06T06:01:22.556Z,100390.39
2018-11-06T06:03:51.911Z,100396.89
2018-11-06T06:06:21.321Z,100400.79
2018-11-06T06:08:50.764Z,100397.79
2018-11-06T06:11:20.169Z,100390.01
2018-11-06T06:13:49.610Z,100395.23
2018-11-06T06:16:18.973Z,100396.59
2018-11-06T06:18:48.370Z,100401.80
2018-11-06T06:21:17.756Z,100405.30
2018-11-06T06:23:47.128Z,100405.30
2018-11-06T06:26:16.591Z,100414.89
2018-11-06T06:28:45.966Z,100407.53
2018-11-06T06:31:15.366Z,100409.67
2018-11-06T06:33:44.927Z,100410.16
2018-11-06T06:36:14.259Z,100415.44
2018-11-06T06:38:43.780Z,100419.79
2018-11-06T06:41:13.287Z,100425.05
2018-11-06T06:43:42.666Z,100424.21
2018-11-06T06:46:12.169Z,100431.67
2018-11-06T06:48:41.652Z,100419.72
2018-11-06T06:51:11.179Z,100426.72
2018-11-06T06:53:40.584Z,100427.69
2018-11-06T06:56:09.991Z,100430.36
2018-11-06T06:58:39.399Z,100430.66
2018-11-06T07:01:08.996Z,100433.55
2018-11-06T07:03:38.417Z,100437.70
2018-11-06T07:06:07.774Z,100435.13
2018-11-06T07:08:37.217Z,100434.69
2018-11-06T07:11:06.629Z,100439.44
2018-11-06T07:13:36.040Z,100439.25
2018-11-06T07:16:06.657Z,100445.55
2018-11-06T07:18:36.036Z,100438.33
2018-11-06T07:21:05.925Z,100445.41
2018-11-06T07:23:35.292Z,100447.27
2018-11-06T07:26:04.843Z,100438.18
2018-11-06T07:28:34.343Z,100439.22
2018-11-06T07:31:03.887Z,100444.63
2018-11-06T07:33:33.243Z,100447.03
2018-11-06T07:36:02.932Z,100437.92
2018-11-06T07:38:32.362Z,100439.94
2018-11-06T07:41:01.758Z,100444.56
2018-11-06T07:43:31.105Z,100448.97
2018-11-06T07:46:00.495Z,100443.84
2018-11-06T07:48:29.848Z,100450.46
2018-11-06T07:50:59.229Z,100456.61
2018-11-06T07:53:28.655Z,100452.52
2018-11-06T07:55:58.042Z,100451.81
2018-11-06T07:58:27.394Z,100456.69
2018-11-06T08:00:56.760Z,100461.04
2018-11-06T08:03:26.195Z,100459.33
2018-11-06T08:05:55.647Z,100456.12
2018-11-06T08:08:25.058Z,100460.27
2018-11-06T08:10:54.557Z,100462.91
2018-11-06T08:13:23.953Z,100458.05
2018-11-06T08:15:53.399Z,100457.05
2018-11-06T08:18:22.817Z,100455.48
2018-11-06T08:20:52.187Z,100458.09
2018-11-06T08:23:21.643Z,100453.21
2018-11-06T08:25:51.056Z,100457.64
2018-11-06T08:28:20.406Z,100448.61
2018-11-06T08:30:50.231Z,100451.75
2018-11-06T08:33:19.335Z,100451.55
2018-11-06T08:35:48.771Z,100455.29
2018-11-06T08:38:18.191Z,100454.02
2018-11-06T08:40:47.547Z,100453.17
2018-11-06T08:43:16.924Z,100450.81
2018-11-06T08:45:46.299Z,100458.67
2018-11-06T08:48:15.934Z,100448.61
2018-11-06T08:50:45.166Z,100447.70
2018-11-06T08:53:14.775Z,100451.35
2018-11-06T08:55:44.181Z,100446.74
2018-11-06T08:58:13.586Z,100451.78
2018-11-06T09:00:42.962Z,100451.73
2018-11-06T09:03:12.350Z,100451.83
2018-11-06T09:05:41.726Z,100451.63
2018-11-06T09:08:11.132Z,100452.79
2018-11-06T09:10:40.585Z,100447.40
2018-11-06T09:13:10.043Z,100447.88
2018-11-06T09:15:39.434Z,100446.34
2018-11-06T09:18:08.852Z,100439.59
2018-11-06T09:20:38.295Z,100440.51
2018-11-06T09:23:07.663Z,100442.41
2018-11-06T09:25:37.088Z,100454.22
2018-11-06T09:28:06.917Z,100454.62
2018-11-06T09:30:36.364Z,100451.36
2018-11-06T09:33:05.770Z,100455.08
2018-11-06T09:35:35.231Z,100451.74
2018-11-06T09:38:04.596Z,100449.96
2018-11-06T09:40:33.980Z,100447.88
2018-11-06T09:43:03.437Z,100439.53
2018-11-06T09:45:32.872Z,100433.36
2018-11-06T09:48:02.184Z,100433.34
2018-11-06T09:50:31.852Z,100431.25
2018-11-06T09:53:01.283Z,100440.69
2018-11-06T09:55:30.663Z,100445.78
2018-11-06T09:58:00.247Z,100444.11
2018-11-06T10:00:29.680Z,100447.52
2018-11-06T10:02:59.038Z,100446.36
2018-11-06T10:05:28.554Z,100444.08
2018-11-06T10:07:58.061Z,100442.70
2018-11-06T10:10:27.405Z,100450.77
2018-11-06T10:12:56.779Z,100451.22
2018-11-06T10:15:26.172Z,100446.82
2018-11-06T10:17:55.589Z,100440.63
2018-11-06T10:20:24.963Z,100446.18
2018-11-06T10:22:54.391Z,100432.47
2018-11-06T10:25:23.867Z,100434.13
2018-11-06T10:27:53.251Z,100429.28
2018-11-06T10:30:22.603Z,100433.11
2018-11-06T10:32:52.063Z,100432.59
2018-11-06T10:35:21.453Z,100429.46
2018-11-06T10:37:50.860Z,100429.52
2018-11-06T10:40:21.906Z,100428.40
2018-11-06T10:42:51.668Z,100428.72
2018-11-06T10:45:21.394Z,100430.09
2018-11-06T10:47:50.936Z,100430.84
2018-11-06T10:50:20.327Z,100433.95
2018-11-06T10:52:50.058Z,100431.23
2018-11-06T10:55:19.468Z,100427.65
2018-11-06T10:57:48.819Z,100424.47
2018-11-06T11:00:23.251Z,100428.83
2018-11-06T11:02:58.018Z,100426.09
2018-11-06T11:05:28.790Z,100420.53
2018-11-06T11:07:58.300Z,100424.84
2018-11-06T11:10:27.670Z,100421.71
2018-11-06T11:12:58.762Z,100422.55
2018-11-06T11:15:28.142Z,100415.83
2018-11-06T11:17:57.506Z,100412.95
2018-11-06T11:20:26.896Z,100415.75
2018-11-06T11:22:56.291Z,100412.38
2018-11-06T11:25:25.706Z,100418.61
2018-11-06T11:27:55.183Z,100416.53
2018-11-06T11:30:24.576Z,100418.34
2018-11-06T11:32:53.966Z,100410.92
2018-11-06T11:35:23.360Z,100415.34
2018-11-06T11:37:52.802Z,100414.95
2018-11-06T11:40:22.113Z,100413.63
2018-11-06T11:42:51.517Z,100409.23
2018-11-06T11:45:20.883Z,100412.69
2018-11-06T11:47:50.251Z,100412.24
2018-11-06T11:50:19.762Z,100410.92
2018-11-06T11:52:49.103Z,100410.03
2018-11-06T11:55:18.446Z,100412.20
2018-11-06T11:57:47.837Z,100410.86
2018-11-06T12:00:19.091Z,100416.53
2018-11-06T12:02:48.841Z,100408.59
2018-11-06T12:05:18.191Z,100419.11
2018-11-06T12:07:47.591Z,100412.91
2018-11-06T12:10:17.018Z,100414.63
2018-11-06T12:12:46.430Z,100408.43
2018-11-06T12:15:16.966Z,100412.31
2018-11-06T12:17:47.120Z,100407.47
2018-11-06T12:20:16.895Z,100400.86
2018-11-06T12:22:46.378Z,100400.34
2018-11-06T12:25:16.173Z,100402.48
2018-11-06T12:27:45.351Z,100397.61
2018-11-06T12:30:15.978Z,100408.53
2018-11-06T12:32:45.541Z,100417.31
2018-11-06T12:35:15.217Z,100407.62
2018-11-06T12:37:44.973Z,100408.91
2018-11-06T12:40:14.761Z,100403.61
2018-11-06T12:42:44.533Z,100405.78
2018-11-06T12:45:15.243Z,100404.86
2018-11-06T12:47:45.138Z,100409.64
2018-11-06T12:50:14.671Z,100403.39
2018-11-06T12:52:44.047Z,100402.02
2018-11-06T12:55:14.615Z,100401.58
2018-11-06T12:57:43.983Z,100402.87
2018-11-06T13:00:17.325Z,100403.30
2018-11-06T13:02:46.674Z,100400.69
2018-11-06T13:05:16.067Z,100406.83
2018-11-06T13:07:46.083Z,100411.66
2018-11-06T13:10:16.126Z,100400.69
2018-11-06T13:12:45.555Z,100400.70
2018-11-06T13:15:15.641Z,100399.41
2018-11-06T13:17:44.387Z,100403.81
2018-11-06T13:20:15.856Z,100403.81
2018-11-06T13:22:45.825Z,100401.20
2018-11-06T13:25:15.274Z,100403.89
2018-11-06T13:27:44.687Z,100405.27
2018-11-06T13:30:16.488Z,100406.20
2018-11-06T13:32:46.819Z,100404.48
2018-11-06T13:35:16.279Z,100399.69
2018-11-06T13:37:45.812Z,100397.97
2018-11-06T13:40:16.094Z,100398.91
2018-11-06T13:42:46.143Z,100396.73
2018-11-06T13:45:17.091Z,100396.78
2018-11-06T13:47:46.378Z,100395.48
2018-11-06T13:50:16.027Z,100389.81
2018-11-06T13:52:45.451Z,100391.22
2018-11-06T13:55:15.723Z,100395.66
2018-11-06T13:57:45.848Z,100395.28
2018-11-06T14:00:18.743Z,100401.91
2018-11-06T14:02:48.587Z,100401.11
2018-11-06T14:05:18.158Z,100405.12
2018-11-06T14:07:47.558Z,100394.63
2018-11-06T14:10:17.063Z,100396.44
2018-11-06T14:12:46.637Z,100394.33
2018-11-06T14:15:15.986Z,100395.23
2018-11-06T14:17:45.404Z,100394.84
2018-11-06T14:20:15.718Z,100399.73
2018-11-06T14:22:45.531Z,100398.45
2018-11-06T14:25:15.213Z,100403.81
2018-11-06T14:27:44.696Z,100396.84
2018-11-06T14:30:18.797Z,100396.87
2018-11-06T14:32:48.421Z,100395.66
2018-11-06T14:35:19.328Z,100399.23
2018-11-06T14:37:48.831Z,100392.70
2018-11-06T14:40:18.457Z,100397.64
2018-11-06T14:42:47.988Z,100392.41
2018-11-06T14:45:18.434Z,100392.47
2018-11-06T14:47:47.862Z,100402.20
2018-11-06T14:50:17.210Z,100394.77
2018-11-06T14:52:46.597Z,100400.97
2018-11-06T14:55:16.675Z,100397.55
2018-11-06T14:57:46.157Z,100395.83
2018-11-06T15:00:17.816Z,100399.83
2018-11-06T15:02:48.764Z,100395.98
2018-11-06T15:05:19.181Z,100393.43
2018-11-06T15:07:48.643Z,100389.59
2018-11-06T15:10:18.349Z,100388.77
2018-11-06T15:12:47.993Z,100393.25
2018-11-06T15:15:17.731Z,100393.31
2018-11-06T15:17:48.229Z,100391.19
2018-11-06T15:20:19.108Z,100386.83
2018-11-06T15:22:48.525Z,100387.31
2018-11-06T15:25:18.600Z,100392.16
2018-11-06T15:27:48.115Z,100390.05
2018-11-06T15:30:18.379Z,100388.35
2018-11-06T15:32:47.931Z,100392.30
2018-11-06T15:35:18.837Z,100390.61
2018-11-06T15:37:48.313Z,100389.77
2018-11-06T15:40:21.989Z,100398.12
2018-11-06T15:42:51.385Z,100402.96
2018-11-06T15:45:20.939Z,100404.31
2018-11-06T15:47:50.438Z,100398.66
2018-11-06T15:50:20.693Z,100406.16
2018-11-06T15:52:50.814Z,100409.69
2018-11-06T15:55:20.260Z,100413.64
2018-11-06T15:57:52.511Z,100418.08
2018-11-06T16:00:23.142Z,100427.29
2018-11-06T16:02:52.731Z,100425.59
2018-11-06T16:05:22.343Z,100427.78
2018-11-06T16:07:51.806Z,100423.42
2018-11-06T16:10:22.544Z,100419.08
2018-11-06T16:12:52.010Z,100419.13
2018-11-06T16:15:21.512Z,100424.39
2018-11-06T16:17:50.877Z,100420.47
2018-11-06T16:20:21.327Z,100422.22
2018-11-06T16:22:50.843Z,100410.45
2018-11-06T16:25:20.778Z,100404.34
2018-11-06T16:27:50.363Z,100407.84
2018-11-06T16:30:21.219Z,100408.70
2018-11-06T16:32:50.825Z,100403.46
2018-11-06T16:35:21.592Z,100401.72
2018-11-06T16:37:51.021Z,100410.89
2018-11-06T16:40:20.689Z,100410.89
2018-11-06T16:42:50.875Z,100414.83
2018-11-06T16:45:22.102Z,100413.97
2018-11-06T16:47:52.255Z,100414.41
2018-11-06T16:50:21.817Z,100412.23
2018-11-06T16:52:51.320Z,100409.16
2018-11-06T16:55:21.198Z,100410.92
2018-11-06T16:57:50.597Z,100414.02
2018-11-06T17:00:21.876Z,100407.03
2018-11-06T17:02:51.442Z,100418.41
2018-11-06T17:05:20.801Z,100419.72
2018-11-06T17:07:50.563Z,100424.09
2018-11-06T17:10:20.403Z,100421.47
2018-11-06T17:12:49.786Z,100428.50
2018-11-06T17:15:20.402Z,100435.50
2018-11-06T17:17:51.141Z,100431.56
2018-11-06T17:20:21.083Z,100424.14
2018-11-06T17:22:50.668Z,100433.79
2018-11-06T17:25:21.320Z,100433.32
2018-11-06T17:27:50.706Z,100426.34
2018-11-06T17:30:20.401Z,100417.20
2018-11-06T17:32:50.000Z,100413.70
2018-11-06T17:35:20.319Z,100417.64
2018-11-06T17:37:49.705Z,100418.97
2018-11-06T17:40:20.147Z,100412.86
2018-11-06T17:42:49.525Z,100409.80
2018-11-06T17:45:20.422Z,100413.77
2018-11-06T17:47:49.882Z,100413.76
2018-11-06T17:50:19.249Z,100412.45
2018-11-06T17:52:48.655Z,100409.39
2018-11-06T17:55:19.471Z,100412.88
2018-11-06T17:57:48.703Z,100409.81
2018-11-06T18:00:20.911Z,100414.64
2018-11-06T18:02:50.250Z,100409.84
2018-11-06T18:05:21.067Z,100411.58
2018-11-06T18:07:50.413Z,100403.73
2018-11-06T18:10:20.613Z,100407.22
2018-11-06T18:12:50.268Z,100407.64
2018-11-06T18:15:19.721Z,100409.41
2018-11-06T18:17:49.138Z,100403.30
2018-11-06T18:20:18.411Z,100403.73
2018-11-06T18:22:47.828Z,100400.67
2018-11-06T18:25:17.320Z,100403.73
2018-11-06T18:27:46.582Z,100403.72
2018-11-06T18:30:18.134Z,100407.21
2018-11-06T18:32:47.512Z,100403.28
2018-11-06T18:35:17.840Z,100398.08
2018-11-06T18:37:47.280Z,100405.48
2018-11-06T18:40:18.582Z,100395.88
2018-11-06T18:42:48.860Z,100397.18
2018-11-06T18:45:18.327Z,100398.92
2018-11-06T18:47:47.722Z,100400.66
2018-11-06T18:50:18.072Z,100398.08
2018-11-06T18:52:48.717Z,100398.94
2018-11-06T18:55:18.304Z,100399.80
2018-11-06T18:57:47.670Z,100396.31
2018-11-06T19:00:18.554Z,100391.95
2018-11-06T19:02:49.518Z,100391.94
2018-11-06T19:05:19.512Z,100398.04
2018-11-06T19:07:49.044Z,100400.67
2018-11-06T19:10:18.791Z,100397.59
2018-11-06T19:12:48.187Z,100398.03
2018-11-06T19:15:18.967Z,100403.70
2018-11-06T19:17:48.741Z,100406.31
2018-11-06T19:20:18.402Z,100406.33
2018-11-06T19:22:47.987Z,100401.52
2018-11-06T19:25:17.337Z,100404.57
2018-11-06T19:27:46.740Z,100408.08
2018-11-06T19:30:17.742Z,100404.58
2018-11-06T19:32:47.204Z,100405.87
2018-11-06T19:35:16.643Z,100408.03
2018-11-06T19:37:46.042Z,100405.00
2018-11-06T19:40:17.551Z,100407.16
2018-11-06T19:42:47.567Z,100409.77
2018-11-06T19:45:16.947Z,100401.86
2018-11-06T19:47:46.323Z,100408.39
2018-11-06T19:50:17.074Z,100410.14
2018-11-06T19:52:46.508Z,100416.66
2018-11-06T19:55:17.005Z,100408.36
2018-11-06T19:57:46.377Z,100400.09
2018-11-06T20:00:18.058Z,100407.05
2018-11-06T20:02:48.595Z,100410.53
2018-11-06T20:05:18.075Z,100418.78
2018-11-06T20:07:48.203Z,100418.77
2018-11-06T20:10:19.004Z,100420.95
2018-11-06T20:12:49.468Z,100419.63
2018-11-06T20:15:18.906Z,100421.35
2018-11-06T20:17:48.500Z,100420.48
2018-11-06T20:20:20.401Z,100413.50
2018-11-06T20:22:49.762Z,100416.98
2018-11-06T20:25:19.143Z,100413.06
2018-11-06T20:27:48.554Z,100413.50
2018-11-06T20:30:19.615Z,100416.55
2018-11-06T20:32:48.963Z,100409.57
2018-11-06T20:35:18.439Z,100408.70
2018-11-06T20:37:47.839Z,100413.52
2018-11-06T20:40:18.735Z,100412.65
2018-11-06T20:42:48.515Z,100409.16
2018-11-06T20:45:19.070Z,100404.36
2018-11-06T20:47:48.422Z,100411.77
2018-11-06T20:50:20.938Z,100406.53
2018-11-06T20:52:50.359Z,100406.97
2018-11-06T20:55:20.234Z,100407.40
2018-11-06T20:57:49.680Z,100396.94
2018-11-06T21:00:22.779Z,100396.48
2018-11-06T21:02:53.400Z,100394.30
2018-11-06T21:05:22.912Z,100396.05
2018-11-06T21:07:52.305Z,100386.47
2018-11-06T21:10:22.950Z,100385.14
2018-11-06T21:12:52.321Z,100385.56
2018-11-06T21:15:21.754Z,100389.47
2018-11-06T21:17:51.435Z,100386.42
2018-11-06T21:20:20.818Z,100383.78
2018-11-06T21:22:50.204Z,100389.03
2018-11-06T21:25:19.640Z,100394.23
2018-11-06T21:27:48.955Z,100393.34
2018-11-06T21:30:19.590Z,100393.33
2018-11-06T21:32:50.106Z,100389.39
2018-11-06T21:35:19.462Z,100386.77
2018-11-06T21:37:49.076Z,100387.65
2018-11-06T21:40:19.964Z,100392.43
2018-11-06T21:42:49.619Z,100388.93
2018-11-06T21:45:19.277Z,100394.59
2018-11-06T21:47:49.529Z,100387.20
2018-11-06T21:50:19.383Z,100381.97
2018-11-06T21:52:48.764Z,100374.13
2018-11-06T21:55:18.974Z,100373.68
2018-11-06T21:57:48.342Z,100374.55
2018-11-06T22:00:19.033Z,100375.84
2018-11-06T22:02:48.343Z,100373.63
2018-11-06T22:05:19.124Z,100374.06
2018-11-06T22:07:48.665Z,100380.13
2018-11-06T22:10:19.465Z,100378.41
2018-11-06T22:12:49.124Z,100374.92
2018-11-06T22:15:19.294Z,100370.12
2018-11-06T22:17:48.808Z,100370.98
2018-11-06T22:20:19.159Z,100369.22
2018-11-06T22:22:48.878Z,100370.06
2018-11-06T22:25:18.350Z,100374.83
2018-11-06T22:27:47.715Z,100375.27
2018-11-06T22:30:17.647Z,100373.92
2018-11-06T22:32:47.610Z,100377.81
2018-11-06T22:35:17.896Z,100383.88
2018-11-06T22:37:47.273Z,100373.00
2018-11-06T22:40:17.539Z,100382.98
2018-11-06T22:42:46.963Z,100383.87
2018-11-06T22:45:17.328Z,100386.92
2018-11-06T22:47:46.690Z,100379.50
2018-11-06T22:50:17.126Z,100382.95
2018-11-06T22:52:47.366Z,100380.78
2018-11-06T22:55:16.881Z,100384.69
2018-11-06T22:57:46.247Z,100385.53
2018-11-06T23:00:19.392Z,100389.41
2018-11-06T23:02:48.799Z,100389.43
2018-11-06T23:05:18.162Z,100382.89
2018-11-06T23:07:52.903Z,100383.34
2018-11-06T23:10:22.312Z,100382.03
2018-11-06T23:12:51.649Z,100382.44
2018-11-06T23:15:21.040Z,100378.50
2018-11-06T23:17:50.407Z,100377.64
2018-11-06T23:20:19.786Z,100379.81
2018-11-06T23:22:49.211Z,100372.40
2018-11-06T23:25:18.574Z,100374.56
2018-11-06T23:27:47.939Z,100373.66
2018-11-06T23:30:17.297Z,100370.16
2018-11-06T23:32:46.658Z,100369.30
2018-11-06T23:35:16.111Z,100367.55
2018-11-06T23:37:45.479Z,100367.97
2018-11-06T23:40:14.983Z,100364.51
2018-11-06T23:42:44.367Z,100367.98
2018-11-06T23:45:13.731Z,100364.05
2018-11-06T23:47:43.635Z,100359.69
2018-11-06T23:50:13.023Z,100363.13
2018-11-06T23:52:42.546Z,100357.89
2018-11-06T23:55:11.976Z,100362.64
2018-11-06T23:57:41.338Z,100369.58
